map of TGR home
TGR - Airport
Location
City:  Touggourt, Ouargla, Algeria
Name:Sidi Mahdi Airport
ICAO:DAUK
IATA:TGR

Details
Type:Airport (Aerodrome, Airfield)
Latitude:3303'36"N (33.060000)
Longitude:605'14"E (6.087222)
Elevation:279 ft (85 m)
Variation:1.74E (WMM2015v2 magnetic declination)
0.12 annual change
Runways:1
Longest:9843 × 148 ft (3000 × 45 m)

Time
Time Zone:UTC+1
Local Time:

Weather
METAR:DAUK 041400Z 32020KT 1000 BLSA NSC 15/M02 Q1018

Related Locations
Nearby:
Farthest:GIS: 11841 mi / 19056 km
Gisborne, GIS, NZ

Find:

   beyond  
but within

Other Information
Maps:
NOTAMs:
Links:
Sources:

  
  • flag of Algeria
  

Sectional Chart

Flight Planning
at skyvector.com

Satellite Image

Google Maps Satellite view

 

Copyright © 2004-2019 Karl L. Swartz. All rights reserved.
The Great Circle Mapper name and logo are trademarks of the Great Circle Mapper.
All other trademarks mentioned herein belong to their respective owners.
Please see credits for attibutions and further copyright information.

  Follow gcmap on Facebook Follow gcmap on Twitter GCmap on LinkedIn

hCard Microformat

Geo Microformat